sensor_id;sensor_type;location;lat;lon;timestamp;P1;durP1;ratioP1;P2;durP2;ratioP2
42194;SDS011;27863;49.440;11.102;2024-03-23T00:52:00;6.23;;;5.73;;
42194;SDS011;27863;49.440;11.102;2024-03-23T00:55:01;5.90;;;5.30;;
42194;SDS011;27863;49.440;11.102;2024-03-23T00:58:01;6.47;;;5.87;;
42194;SDS011;27863;49.440;11.102;2024-03-23T01:01:02;5.63;;;5.17;;
42194;SDS011;27863;49.440;11.102;2024-03-23T01:04:03;5.53;;;5.03;;
42194;SDS011;27863;49.440;11.102;2024-03-23T01:07:04;5.80;;;5.20;;
42194;SDS011;27863;49.440;11.102;2024-03-23T01:10:04;6.70;;;6.10;;
42194;SDS011;27863;49.440;11.102;2024-03-23T01:13:05;6.20;;;5.60;;
42194;SDS011;27863;49.440;11.102;2024-03-23T01:16:06;6.20;;;5.70;;
42194;SDS011;27863;49.440;11.102;2024-03-23T01:19:06;6.37;;;5.77;;
42194;SDS011;27863;49.440;11.102;2024-03-23T01:22:07;6.30;;;5.80;;
42194;SDS011;27863;49.440;11.102;2024-03-23T01:25:10;6.40;;;5.53;;
42194;SDS011;27863;49.440;11.102;2024-03-23T01:28:10;5.87;;;5.33;;
42194;SDS011;27863;49.440;11.102;2024-03-23T01:31:11;6.20;;;5.60;;
42194;SDS011;27863;49.440;11.102;2024-03-23T01:34:12;6.00;;;5.50;;
42194;SDS011;27863;49.440;11.102;2024-03-23T01:37:13;6.37;;;5.70;;
42194;SDS011;27863;49.440;11.102;2024-03-23T01:40:15;5.90;;;5.37;;
42194;SDS011;27863;49.440;11.102;2024-03-23T01:43:16;5.93;;;5.43;;
42194;SDS011;27863;49.440;11.102;2024-03-23T01:46:18;8.07;;;6.10;;
42194;SDS011;27863;49.440;11.102;2024-03-23T01:49:18;5.87;;;5.23;;
42194;SDS011;27863;49.440;11.102;2024-03-23T01:52:19;8.67;;;5.90;;
42194;SDS011;27863;49.440;11.102;2024-03-23T01:55:20;5.40;;;5.00;;
42194;SDS011;27863;49.440;11.102;2024-03-23T01:58:20;6.23;;;5.43;;
42194;SDS011;27863;49.440;11.102;2024-03-23T02:01:21;5.80;;;5.03;;
42194;SDS011;27863;49.440;11.102;2024-03-23T02:04:22;6.73;;;5.60;;
42194;SDS011;27863;49.440;11.102;2024-03-23T02:07:23;5.43;;;4.60;;
42194;SDS011;27863;49.440;11.102;2024-03-23T02:10:24;5.60;;;5.10;;
42194;SDS011;27863;49.440;11.102;2024-03-23T02:13:25;5.87;;;4.80;;
42194;SDS011;27863;49.440;11.102;2024-03-23T02:16:25;6.47;;;4.60;;
42194;SDS011;27863;49.440;11.102;2024-03-23T02:19:26;5.03;;;4.23;;
42194;SDS011;27863;49.440;11.102;2024-03-23T02:22:36;5.83;;;5.23;;
42194;SDS011;27863;49.440;11.102;2024-03-23T02:25:37;5.73;;;5.23;;
42194;SDS011;27863;49.440;11.102;2024-03-23T02:28:39;5.50;;;4.60;;
42194;SDS011;27863;49.440;11.102;2024-03-23T02:31:39;5.60;;;5.07;;
42194;SDS011;27863;49.440;11.102;2024-03-23T02:34:41;6.47;;;4.80;;
42194;SDS011;27863;49.440;11.102;2024-03-23T02:37:42;5.63;;;5.10;;
42194;SDS011;27863;49.440;11.102;2024-03-23T02:40:44;5.53;;;4.97;;
42194;SDS011;27863;49.440;11.102;2024-03-23T02:43:44;5.53;;;5.03;;
42194;SDS011;27863;49.440;11.102;2024-03-23T02:46:45;5.00;;;4.60;;
42194;SDS011;27863;49.440;11.102;2024-03-23T02:49:45;5.53;;;5.03;;
42194;SDS011;27863;49.440;11.102;2024-03-23T02:52:47;5.27;;;4.77;;
42194;SDS011;27863;49.440;11.102;2024-03-23T02:55:48;5.23;;;4.60;;
42194;SDS011;27863;49.440;11.102;2024-03-23T02:58:48;5.17;;;4.67;;
42194;SDS011;27863;49.440;11.102;2024-03-23T03:01:49;7.20;;;5.00;;
42194;SDS011;27863;49.440;11.102;2024-03-23T03:04:50;5.60;;;5.20;;
42194;SDS011;27863;49.440;11.102;2024-03-23T03:07:52;5.33;;;4.50;;
42194;SDS011;27863;49.440;11.102;2024-03-23T03:10:52;5.77;;;5.27;;
42194;SDS011;27863;49.440;11.102;2024-03-23T03:13:53;5.23;;;4.83;;
42194;SDS011;27863;49.440;11.102;2024-03-23T03:16:54;6.03;;;5.10;;
42194;SDS011;27863;49.440;11.102;2024-03-23T03:19:54;5.27;;;4.77;;
42194;SDS011;27863;49.440;11.102;2024-03-23T03:22:55;6.37;;;4.60;;
42194;SDS011;27863;49.440;11.102;2024-03-23T03:25:56;4.87;;;4.37;;
42194;SDS011;27863;49.440;11.102;2024-03-23T03:28:57;6.40;;;5.90;;
42194;SDS011;27863;49.440;11.102;2024-03-23T03:31:57;6.83;;;6.23;;
42194;SDS011;27863;49.440;11.102;2024-03-23T03:34:58;5.57;;;5.07;;
42194;SDS011;27863;49.440;11.102;2024-03-23T03:37:58;5.70;;;5.03;;
42194;SDS011;27863;49.440;11.102;2024-03-23T03:40:59;4.27;;;3.97;;
42194;SDS011;27863;49.440;11.102;2024-03-23T03:43:59;4.77;;;4.37;;
42194;SDS011;27863;49.440;11.102;2024-03-23T03:47:02;5.90;;;5.37;;
42194;SDS011;27863;49.440;11.102;2024-03-23T03:50:02;5.40;;;4.53;;
42194;SDS011;27863;49.440;11.102;2024-03-23T03:53:03;6.00;;;5.50;;
42194;SDS011;27863;49.440;11.102;2024-03-23T03:56:04;7.37;;;6.23;;
42194;SDS011;27863;49.440;11.102;2024-03-23T03:59:05;6.43;;;5.83;;
42194;SDS011;27863;49.440;11.102;2024-03-23T04:02:05;6.67;;;6.07;;
42194;SDS011;27863;49.440;11.102;2024-03-23T04:05:06;5.70;;;5.30;;
42194;SDS011;27863;49.440;11.102;2024-03-23T04:08:08;9.17;;;6.13;;
42194;SDS011;27863;49.440;11.102;2024-03-23T04:11:08;7.00;;;6.30;;
42194;SDS011;27863;49.440;11.102;2024-03-23T04:14:09;7.40;;;6.70;;
42194;SDS011;27863;49.440;11.102;2024-03-23T04:17:09;7.47;;;6.87;;
42194;SDS011;27863;49.440;11.102;2024-03-23T04:20:10;8.63;;;6.80;;
42194;SDS011;27863;49.440;11.102;2024-03-23T04:23:11;7.13;;;6.53;;
42194;SDS011;27863;49.440;11.102;2024-03-23T04:26:11;11.00;;;7.17;;
42194;SDS011;27863;49.440;11.102;2024-03-23T04:29:12;7.27;;;6.67;;
42194;SDS011;27863;49.440;11.102;2024-03-23T04:32:13;7.77;;;6.97;;
42194;SDS011;27863;49.440;11.102;2024-03-23T04:35:14;8.93;;;6.60;;
42194;SDS011;27863;49.440;11.102;2024-03-23T04:38:14;8.17;;;7.37;;
42194;SDS011;27863;49.440;11.102;2024-03-23T04:41:15;8.17;;;7.10;;
42194;SDS011;27863;49.440;11.102;2024-03-23T04:44:15;7.33;;;6.73;;
42194;SDS011;27863;49.440;11.102;2024-03-23T04:47:16;11.17;;;6.33;;
42194;SDS011;27863;49.440;11.102;2024-03-23T04:50:16;6.77;;;6.17;;
42194;SDS011;27863;49.440;11.102;2024-03-23T04:53:18;7.43;;;6.57;;
42194;SDS011;27863;49.440;11.102;2024-03-23T04:56:19;7.40;;;5.50;;
42194;SDS011;27863;49.440;11.102;2024-03-23T04:59:19;5.97;;;5.47;;
42194;SDS011;27863;49.440;11.102;2024-03-23T05:02:20;7.07;;;6.47;;
42194;SDS011;27863;49.440;11.102;2024-03-23T05:05:22;6.70;;;6.00;;
42194;SDS011;27863;49.440;11.102;2024-03-23T05:08:23;6.77;;;5.60;;
42194;SDS011;27863;49.440;11.102;2024-03-23T05:11:24;6.33;;;5.83;;
42194;SDS011;27863;49.440;11.102;2024-03-23T05:14:24;6.90;;;6.40;;
42194;SDS011;27863;49.440;11.102;2024-03-23T05:17:27;6.50;;;5.90;;
42194;SDS011;27863;49.440;11.102;2024-03-23T05:20:27;6.90;;;6.30;;
42194;SDS011;27863;49.440;11.102;2024-03-23T05:23:28;6.87;;;6.07;;
42194;SDS011;27863;49.440;11.102;2024-03-23T05:26:29;6.47;;;5.97;;
42194;SDS011;27863;49.440;11.102;2024-03-23T05:29:29;7.83;;;7.03;;
42194;SDS011;27863;49.440;11.102;2024-03-23T05:32:30;6.93;;;5.57;;
42194;SDS011;27863;49.440;11.102;2024-03-23T05:35:31;6.67;;;6.07;;
42194;SDS011;27863;49.440;11.102;2024-03-23T05:38:33;8.57;;;5.63;;
42194;SDS011;27863;49.440;11.102;2024-03-23T05:41:33;5.73;;;5.03;;
42194;SDS011;27863;49.440;11.102;2024-03-23T05:44:36;5.47;;;5.03;;
42194;SDS011;27863;49.440;11.102;2024-03-23T05:47:38;6.07;;;5.57;;
42194;SDS011;27863;49.440;11.102;2024-03-23T05:50:38;5.97;;;5.47;;
42194;SDS011;27863;49.440;11.102;2024-03-23T05:53:39;6.13;;;4.93;;
42194;SDS011;27863;49.440;11.102;2024-03-23T05:56:41;6.43;;;4.23;;
42194;SDS011;27863;49.440;11.102;2024-03-23T05:59:42;5.53;;;4.17;;
42194;SDS011;27863;49.440;11.102;2024-03-23T06:02:43;4.13;;;3.83;;
42194;SDS011;27863;49.440;11.102;2024-03-23T06:05:46;5.83;;;4.70;;
42194;SDS011;27863;49.440;11.102;2024-03-23T06:08:47;6.07;;;4.40;;
42194;SDS011;27863;49.440;11.102;2024-03-23T06:11:48;4.53;;;4.13;;
42194;SDS011;27863;49.440;11.102;2024-03-23T06:14:49;4.93;;;4.53;;
42194;SDS011;27863;49.440;11.102;2024-03-23T06:17:50;4.13;;;3.83;;
42194;SDS011;27863;49.440;11.102;2024-03-23T06:20:50;5.03;;;4.50;;
42194;SDS011;27863;49.440;11.102;2024-03-23T06:23:51;10.40;;;5.80;;
42194;SDS011;27863;49.440;11.102;2024-03-23T06:26:52;7.33;;;6.10;;
42194;SDS011;27863;49.440;11.102;2024-03-23T06:29:54;6.50;;;5.97;;
42194;SDS011;27863;49.440;11.102;2024-03-23T06:32:54;7.00;;;6.33;;
42194;SDS011;27863;49.440;11.102;2024-03-23T06:35:55;8.63;;;7.93;;
42194;SDS011;27863;49.440;11.102;2024-03-23T06:38:56;6.83;;;6.23;;
42194;SDS011;27863;49.440;11.102;2024-03-23T06:41:56;7.20;;;6.50;;
42194;SDS011;27863;49.440;11.102;2024-03-23T06:44:57;8.00;;;7.30;;
42194;SDS011;27863;49.440;11.102;2024-03-23T06:47:58;8.27;;;7.50;;
42194;SDS011;27863;49.440;11.102;2024-03-23T06:50:58;7.80;;;7.10;;
42194;SDS011;27863;49.440;11.102;2024-03-23T06:53:59;9.50;;;7.27;;
42194;SDS011;27863;49.440;11.102;2024-03-23T06:56:59;9.77;;;7.37;;
42194;SDS011;27863;49.440;11.102;2024-03-23T07:00:00;8.13;;;7.43;;
42194;SDS011;27863;49.440;11.102;2024-03-23T07:03:01;8.00;;;7.20;;
42194;SDS011;27863;49.440;11.102;2024-03-23T07:06:02;7.13;;;6.43;;
42194;SDS011;27863;49.440;11.102;2024-03-23T07:09:02;7.30;;;6.67;;
42194;SDS011;27863;49.440;11.102;2024-03-23T07:12:03;7.73;;;7.00;;
42194;SDS011;27863;49.440;11.102;2024-03-23T07:15:05;6.93;;;6.33;;
42194;SDS011;27863;49.440;11.102;2024-03-23T07:18:06;7.00;;;6.40;;
42194;SDS011;27863;49.440;11.102;2024-03-23T07:21:06;7.33;;;6.60;;
42194;SDS011;27863;49.440;11.102;2024-03-23T07:24:07;6.63;;;5.93;;
42194;SDS011;27863;49.440;11.102;2024-03-23T07:27:08;6.43;;;5.30;;
42194;SDS011;27863;49.440;11.102;2024-03-23T07:30:10;6.07;;;5.47;;
42194;SDS011;27863;49.440;11.102;2024-03-23T07:33:10;5.03;;;4.63;;
42194;SDS011;27863;49.440;11.102;2024-03-23T07:36:11;5.40;;;4.90;;
42194;SDS011;27863;49.440;11.102;2024-03-23T07:39:12;5.63;;;5.10;;
42194;SDS011;27863;49.440;11.102;2024-03-23T07:42:12;5.93;;;5.33;;
42194;SDS011;27863;49.440;11.102;2024-03-23T07:45:13;6.83;;;4.87;;
42194;SDS011;27863;49.440;11.102;2024-03-23T07:48:13;7.23;;;5.07;;
42194;SDS011;27863;49.440;11.102;2024-03-23T07:51:18;5.03;;;4.53;;
42194;SDS011;27863;49.440;11.102;2024-03-23T07:54:20;4.53;;;4.13;;
42194;SDS011;27863;49.440;11.102;2024-03-23T07:57:22;5.10;;;4.60;;
42194;SDS011;27863;49.440;11.102;2024-03-23T08:00:23;6.63;;;5.03;;
42194;SDS011;27863;49.440;11.102;2024-03-23T08:03:23;6.57;;;5.37;;
42194;SDS011;27863;49.440;11.102;2024-03-23T08:06:25;5.07;;;4.67;;
42194;SDS011;27863;49.440;11.102;2024-03-23T08:09:25;5.13;;;4.17;;
42194;SDS011;27863;49.440;11.102;2024-03-23T08:12:26;6.07;;;4.27;;
42194;SDS011;27863;49.440;11.102;2024-03-23T08:15:26;5.53;;;5.03;;
42194;SDS011;27863;49.440;11.102;2024-03-23T08:18:27;5.43;;;3.77;;
42194;SDS011;27863;49.440;11.102;2024-03-23T08:21:27;6.70;;;4.77;;
42194;SDS011;27863;49.440;11.102;2024-03-23T08:24:28;4.30;;;3.90;;
42194;SDS011;27863;49.440;11.102;2024-03-23T08:27:30;4.70;;;4.30;;
42194;SDS011;27863;49.440;11.102;2024-03-23T08:30:31;3.10;;;2.80;;
42194;SDS011;27863;49.440;11.102;2024-03-23T08:33:31;2.10;;;1.97;;
42194;SDS011;27863;49.440;11.102;2024-03-23T08:36:32;1.83;;;1.67;;
42194;SDS011;27863;49.440;11.102;2024-03-23T08:39:32;1.70;;;1.57;;
42194;SDS011;27863;49.440;11.102;2024-03-23T08:42:33;1.70;;;1.53;;
42194;SDS011;27863;49.440;11.102;2024-03-23T08:45:33;2.10;;;1.80;;
42194;SDS011;27863;49.440;11.102;2024-03-23T08:48:34;1.73;;;1.53;;
42194;SDS011;27863;49.440;11.102;2024-03-23T08:51:37;1.80;;;1.63;;
42194;SDS011;27863;49.440;11.102;2024-03-23T08:54:38;1.40;;;1.30;;
42194;SDS011;27863;49.440;11.102;2024-03-23T08:57:38;1.77;;;1.30;;
42194;SDS011;27863;49.440;11.102;2024-03-23T09:00:38;1.43;;;1.33;;
42194;SDS011;27863;49.440;11.102;2024-03-23T09:03:39;1.23;;;1.13;;
42194;SDS011;27863;49.440;11.102;2024-03-23T09:06:42;0.90;;;0.90;;
42194;SDS011;27863;49.440;11.102;2024-03-23T09:09:43;0.80;;;0.80;;
42194;SDS011;27863;49.440;11.102;2024-03-23T09:12:43;1.30;;;0.70;;
42194;SDS011;27863;49.440;11.102;2024-03-23T09:15:48;0.93;;;0.90;;
42194;SDS011;27863;49.440;11.102;2024-03-23T09:18:51;0.50;;;0.50;;
42194;SDS011;27863;49.440;11.102;2024-03-23T09:21:52;1.67;;;0.63;;
42194;SDS011;27863;49.440;11.102;2024-03-23T09:24:53;0.60;;;0.50;;
42194;SDS011;27863;49.440;11.102;2024-03-23T09:27:53;0.80;;;0.70;;
42194;SDS011;27863;49.440;11.102;2024-03-23T09:30:54;0.60;;;0.60;;
42194;SDS011;27863;49.440;11.102;2024-03-23T09:34:02;0.47;;;0.47;;
42194;SDS011;27863;49.440;11.102;2024-03-23T09:37:05;0.50;;;0.50;;
42194;SDS011;27863;49.440;11.102;2024-03-23T09:40:09;0.53;;;0.40;;
42194;SDS011;27863;49.440;11.102;2024-03-23T09:43:10;0.37;;;0.37;;
42194;SDS011;27863;49.440;11.102;2024-03-23T09:46:11;0.53;;;0.50;;
42194;SDS011;27863;49.440;11.102;2024-03-23T09:49:13;0.20;;;0.20;;
42194;SDS011;27863;49.440;11.102;2024-03-23T09:52:14;0.20;;;0.20;;
42194;SDS011;27863;49.440;11.102;2024-03-23T09:55:15;0.40;;;0.40;;
42194;SDS011;27863;49.440;11.102;2024-03-23T09:58:16;0.20;;;0.20;;
42194;SDS011;27863;49.440;11.102;2024-03-23T10:01:17;0.43;;;0.30;;
42194;SDS011;27863;49.440;11.102;2024-03-23T10:07:37;0.30;;;0.30;;
42194;SDS011;27863;49.440;11.102;2024-03-23T10:10:37;0.10;;;0.10;;
42194;SDS011;27863;49.440;11.102;2024-03-23T10:13:39;0.10;;;0.10;;
42194;SDS011;27863;49.440;11.102;2024-03-23T10:16:46;0.47;;;0.30;;
42194;SDS011;27863;49.440;11.102;2024-03-23T10:19:47;0.30;;;0.20;;
42194;SDS011;27863;49.440;11.102;2024-03-23T10:22:50;0.47;;;0.30;;
42194;SDS011;27863;49.440;11.102;2024-03-23T10:25:51;0.50;;;0.40;;
42194;SDS011;27863;49.440;11.102;2024-03-23T10:28:52;0.30;;;0.30;;
42194;SDS011;27863;49.440;11.102;2024-03-23T10:32:08;1.03;;;0.70;;
42194;SDS011;27863;49.440;11.102;2024-03-23T10:38:16;0.40;;;0.40;;
42194;SDS011;27863;49.440;11.102;2024-03-23T10:41:18;1.13;;;0.70;;
42194;SDS011;27863;49.440;11.102;2024-03-23T10:44:19;2.73;;;0.70;;
42194;SDS011;27863;49.440;11.102;2024-03-23T10:47:21;1.13;;;0.60;;
42194;SDS011;27863;49.440;11.102;2024-03-23T10:50:22;0.47;;;0.47;;
42194;SDS011;27863;49.440;11.102;2024-03-23T10:53:25;0.70;;;0.70;;
42194;SDS011;27863;49.440;11.102;2024-03-23T10:56:26;1.43;;;0.80;;
42194;SDS011;27863;49.440;11.102;2024-03-23T10:59:29;2.27;;;0.90;;
42194;SDS011;27863;49.440;11.102;2024-03-23T11:02:30;1.50;;;0.90;;
42194;SDS011;27863;49.440;11.102;2024-03-23T11:05:31;2.37;;;1.30;;
42194;SDS011;27863;49.440;11.102;2024-03-23T11:08:36;2.60;;;1.13;;
42194;SDS011;27863;49.440;11.102;2024-03-23T11:11:38;1.83;;;1.00;;
42194;SDS011;27863;49.440;11.102;2024-03-23T11:14:39;1.20;;;0.87;;
42194;SDS011;27863;49.440;11.102;2024-03-23T11:17:39;4.80;;;1.30;;
42194;SDS011;27863;49.440;11.102;2024-03-23T11:20:40;1.53;;;1.10;;
42194;SDS011;27863;49.440;11.102;2024-03-23T11:23:41;1.90;;;1.23;;
42194;SDS011;27863;49.440;11.102;2024-03-23T11:26:42;2.57;;;1.33;;
42194;SDS011;27863;49.440;11.102;2024-03-23T11:29:45;1.70;;;1.00;;
42194;SDS011;27863;49.440;11.102;2024-03-23T11:32:48;2.50;;;1.43;;
42194;SDS011;27863;49.440;11.102;2024-03-23T11:35:50;2.83;;;1.37;;
42194;SDS011;27863;49.440;11.102;2024-03-23T11:38:51;1.73;;;1.27;;
42194;SDS011;27863;49.440;11.102;2024-03-23T11:41:53;1.50;;;1.30;;
42194;SDS011;27863;49.440;11.102;2024-03-23T11:44:56;6.10;;;1.80;;
42194;SDS011;27863;49.440;11.102;2024-03-23T11:48:06;3.63;;;1.70;;
42194;SDS011;27863;49.440;11.102;2024-03-23T11:51:08;2.00;;;1.43;;
42194;SDS011;27863;49.440;11.102;2024-03-23T11:54:08;2.40;;;1.60;;
42194;SDS011;27863;49.440;11.102;2024-03-23T11:57:10;2.07;;;1.60;;
42194;SDS011;27863;49.440;11.102;2024-03-23T12:00:21;2.00;;;1.30;;
42194;SDS011;27863;49.440;11.102;2024-03-23T12:03:22;2.23;;;1.50;;
42194;SDS011;27863;49.440;11.102;2024-03-23T12:06:25;1.63;;;1.50;;
42194;SDS011;27863;49.440;11.102;2024-03-23T12:09:26;3.30;;;1.17;;
42194;SDS011;27863;49.440;11.102;2024-03-23T12:12:26;2.30;;;1.40;;
42194;SDS011;27863;49.440;11.102;2024-03-23T12:15:27;1.93;;;1.37;;
42194;SDS011;27863;49.440;11.102;2024-03-23T12:18:29;5.47;;;1.67;;
42194;SDS011;27863;49.440;11.102;2024-03-23T12:21:30;3.17;;;1.90;;
42194;SDS011;27863;49.440;11.102;2024-03-23T12:24:34;3.83;;;1.37;;
42194;SDS011;27863;49.440;11.102;2024-03-23T12:27:35;4.10;;;1.53;;
42194;SDS011;27863;49.440;11.102;2024-03-23T12:30:36;2.53;;;1.40;;
42194;SDS011;27863;49.440;11.102;2024-03-23T12:33:40;3.03;;;1.80;;
42194;SDS011;27863;49.440;11.102;2024-03-23T12:36:42;1.40;;;1.30;;
42194;SDS011;27863;49.440;11.102;2024-03-23T12:39:42;3.03;;;1.50;;
42194;SDS011;27863;49.440;11.102;2024-03-23T12:42:43;3.30;;;1.63;;
42194;SDS011;27863;49.440;11.102;2024-03-23T12:45:47;1.93;;;1.33;;
42194;SDS011;27863;49.440;11.102;2024-03-23T12:48:48;3.60;;;1.93;;
42194;SDS011;27863;49.440;11.102;2024-03-23T12:51:55;1.63;;;1.40;;
42194;SDS011;27863;49.440;11.102;2024-03-23T12:54:56;2.10;;;1.50;;
42194;SDS011;27863;49.440;11.102;2024-03-23T12:57:57;2.03;;;1.40;;
42194;SDS011;27863;49.440;11.102;2024-03-23T13:00:58;1.93;;;1.30;;
42194;SDS011;27863;49.440;11.102;2024-03-23T13:03:59;4.23;;;1.90;;
42194;SDS011;27863;49.440;11.102;2024-03-23T13:07:01;3.23;;;2.00;;
42194;SDS011;27863;49.440;11.102;2024-03-23T13:10:03;4.67;;;1.80;;
42194;SDS011;27863;49.440;11.102;2024-03-23T13:13:04;4.00;;;2.17;;
42194;SDS011;27863;49.440;11.102;2024-03-23T13:16:08;5.17;;;1.80;;
42194;SDS011;27863;49.440;11.102;2024-03-23T13:19:08;2.70;;;1.90;;
42194;SDS011;27863;49.440;11.102;2024-03-23T13:22:09;4.03;;;2.07;;
42194;SDS011;27863;49.440;11.102;2024-03-23T13:25:11;1.90;;;1.77;;
42194;SDS011;27863;49.440;11.102;2024-03-23T13:28:12;2.03;;;1.83;;
42194;SDS011;27863;49.440;11.102;2024-03-23T13:31:13;4.00;;;1.73;;
42194;SDS011;27863;49.440;11.102;2024-03-23T13:34:14;3.07;;;1.47;;
42194;SDS011;27863;49.440;11.102;2024-03-23T13:37:15;2.77;;;2.03;;
42194;SDS011;27863;49.440;11.102;2024-03-23T13:40:16;3.90;;;1.70;;
42194;SDS011;27863;49.440;11.102;2024-03-23T13:43:16;2.80;;;1.80;;
42194;SDS011;27863;49.440;11.102;2024-03-23T13:46:17;7.37;;;1.93;;
42194;SDS011;27863;49.440;11.102;2024-03-23T13:52:24;3.00;;;1.70;;
42194;SDS011;27863;49.440;11.102;2024-03-23T13:55:26;5.63;;;2.00;;
42194;SDS011;27863;49.440;11.102;2024-03-23T13:58:27;3.33;;;1.80;;
42194;SDS011;27863;49.440;11.102;2024-03-23T14:01:27;4.90;;;1.60;;
42194;SDS011;27863;49.440;11.102;2024-03-23T14:04:31;2.50;;;1.80;;
42194;SDS011;27863;49.440;11.102;2024-03-23T14:07:32;4.30;;;2.00;;
42194;SDS011;27863;49.440;11.102;2024-03-23T14:10:32;3.37;;;1.57;;
42194;SDS011;27863;49.440;11.102;2024-03-23T14:13:37;3.70;;;1.50;;
42194;SDS011;27863;49.440;11.102;2024-03-23T14:16:38;2.30;;;1.43;;
42194;SDS011;27863;49.440;11.102;2024-03-23T14:19:40;2.13;;;1.90;;
42194;SDS011;27863;49.440;11.102;2024-03-23T14:22:41;4.23;;;2.10;;
42194;SDS011;27863;49.440;11.102;2024-03-23T14:25:43;3.60;;;2.10;;
42194;SDS011;27863;49.440;11.102;2024-03-23T14:28:43;6.37;;;1.80;;
42194;SDS011;27863;49.440;11.102;2024-03-23T14:31:44;2.80;;;1.53;;
42194;SDS011;27863;49.440;11.102;2024-03-23T14:34:44;3.10;;;1.77;;
42194;SDS011;27863;49.440;11.102;2024-03-23T14:37:45;3.63;;;2.43;;
42194;SDS011;27863;49.440;11.102;2024-03-23T14:40:47;2.13;;;1.47;;
42194;SDS011;27863;49.440;11.102;2024-03-23T14:43:48;3.67;;;1.60;;
42194;SDS011;27863;49.440;11.102;2024-03-23T14:46:51;7.63;;;1.50;;
42194;SDS011;27863;49.440;11.102;2024-03-23T14:49:55;6.20;;;1.70;;
42194;SDS011;27863;49.440;11.102;2024-03-23T14:52:58;3.53;;;1.67;;
42194;SDS011;27863;49.440;11.102;2024-03-23T14:56:00;2.67;;;1.53;;
42194;SDS011;27863;49.440;11.102;2024-03-23T14:59:02;2.63;;;2.17;;
42194;SDS011;27863;49.440;11.102;2024-03-23T15:02:03;3.33;;;1.70;;
42194;SDS011;27863;49.440;11.102;2024-03-23T15:05:07;2.93;;;1.43;;
42194;SDS011;27863;49.440;11.102;2024-03-23T15:08:09;3.20;;;1.80;;
42194;SDS011;27863;49.440;11.102;2024-03-23T15:11:10;5.03;;;1.90;;
42194;SDS011;27863;49.440;11.102;2024-03-23T15:14:11;4.70;;;1.90;;
42194;SDS011;27863;49.440;11.102;2024-03-23T15:17:12;5.23;;;2.77;;
42194;SDS011;27863;49.440;11.102;2024-03-23T15:20:12;6.77;;;2.40;;
42194;SDS011;27863;49.440;11.102;2024-03-23T15:23:14;3.07;;;1.97;;
42194;SDS011;27863;49.440;11.102;2024-03-23T15:26:15;3.70;;;2.10;;
42194;SDS011;27863;49.440;11.102;2024-03-23T15:29:18;4.47;;;2.60;;
42194;SDS011;27863;49.440;11.102;2024-03-23T15:32:18;2.80;;;2.13;;
42194;SDS011;27863;49.440;11.102;2024-03-23T15:35:19;3.93;;;3.00;;
42194;SDS011;27863;49.440;11.102;2024-03-23T15:38:23;2.63;;;2.37;;
42194;SDS011;27863;49.440;11.102;2024-03-23T15:41:23;5.17;;;2.70;;
42194;SDS011;27863;49.440;11.102;2024-03-23T15:44:25;3.83;;;2.70;;
42194;SDS011;27863;49.440;11.102;2024-03-23T15:47:26;4.07;;;3.03;;
42194;SDS011;27863;49.440;11.102;2024-03-23T15:50:27;3.40;;;2.73;;
42194;SDS011;27863;49.440;11.102;2024-03-23T15:53:28;2.27;;;1.97;;
42194;SDS011;27863;49.440;11.102;2024-03-23T15:56:29;2.03;;;1.50;;
42194;SDS011;27863;49.440;11.102;2024-03-23T15:59:29;3.67;;;1.90;;
42194;SDS011;27863;49.440;11.102;2024-03-23T16:02:30;3.70;;;1.50;;
42194;SDS011;27863;49.440;11.102;2024-03-23T16:05:30;4.97;;;2.20;;
42194;SDS011;27863;49.440;11.102;2024-03-23T16:08:32;2.83;;;1.53;;
42194;SDS011;27863;49.440;11.102;2024-03-23T16:11:34;6.80;;;3.00;;
42194;SDS011;27863;49.440;11.102;2024-03-23T16:14:34;2.27;;;2.03;;
42194;SDS011;27863;49.440;11.102;2024-03-23T16:17:35;1.67;;;1.57;;
42194;SDS011;27863;49.440;11.102;2024-03-23T16:20:37;2.73;;;2.23;;
42194;SDS011;27863;49.440;11.102;2024-03-23T16:23:39;3.17;;;1.60;;
42194;SDS011;27863;49.440;11.102;2024-03-23T16:26:45;3.67;;;2.33;;
42194;SDS011;27863;49.440;11.102;2024-03-23T16:29:47;1.90;;;1.47;;
42194;SDS011;27863;49.440;11.102;2024-03-23T16:32:49;3.27;;;1.97;;
42194;SDS011;27863;49.440;11.102;2024-03-23T16:35:56;2.50;;;1.80;;
42194;SDS011;27863;49.440;11.102;2024-03-23T16:39:00;1.87;;;1.70;;
42194;SDS011;27863;49.440;11.102;2024-03-23T16:42:01;1.90;;;1.50;;
42194;SDS011;27863;49.440;11.102;2024-03-23T16:45:01;1.37;;;1.27;;
42194;SDS011;27863;49.440;11.102;2024-03-23T16:48:03;3.07;;;1.50;;
42194;SDS011;27863;49.440;11.102;2024-03-23T16:51:04;3.03;;;2.03;;
42194;SDS011;27863;49.440;11.102;2024-03-23T16:54:05;2.90;;;1.97;;
42194;SDS011;27863;49.440;11.102;2024-03-23T16:57:06;2.70;;;1.50;;
42194;SDS011;27863;49.440;11.102;2024-03-23T17:00:07;2.63;;;1.97;;
42194;SDS011;27863;49.440;11.102;2024-03-23T17:03:11;1.70;;;1.60;;
42194;SDS011;27863;49.440;11.102;2024-03-23T17:06:12;3.10;;;1.40;;
42194;SDS011;27863;49.440;11.102;2024-03-23T17:09:15;2.87;;;1.67;;
42194;SDS011;27863;49.440;11.102;2024-03-23T17:12:16;2.77;;;1.67;;
42194;SDS011;27863;49.440;11.102;2024-03-23T17:15:18;3.60;;;1.20;;
42194;SDS011;27863;49.440;11.102;2024-03-23T17:18:21;3.10;;;1.30;;
42194;SDS011;27863;49.440;11.102;2024-03-23T17:21:21;2.93;;;1.20;;
42194;SDS011;27863;49.440;11.102;2024-03-23T17:24:23;3.40;;;1.67;;
42194;SDS011;27863;49.440;11.102;2024-03-23T17:27:23;2.67;;;1.33;;
42194;SDS011;27863;49.440;11.102;2024-03-23T17:30:24;3.07;;;1.50;;
42194;SDS011;27863;49.440;11.102;2024-03-23T17:33:26;1.67;;;1.37;;
42194;SDS011;27863;49.440;11.102;2024-03-23T17:36:27;2.47;;;2.00;;
42194;SDS011;27863;49.440;11.102;2024-03-23T17:39:31;1.97;;;1.23;;
42194;SDS011;27863;49.440;11.102;2024-03-23T17:42:35;2.07;;;1.40;;
42194;SDS011;27863;49.440;11.102;2024-03-23T17:45:36;3.27;;;1.40;;
42194;SDS011;27863;49.440;11.102;2024-03-23T17:48:38;1.17;;;1.07;;
42194;SDS011;27863;49.440;11.102;2024-03-23T17:51:38;1.87;;;1.10;;
42194;SDS011;27863;49.440;11.102;2024-03-23T17:54:39;1.17;;;1.00;;
42194;SDS011;27863;49.440;11.102;2024-03-23T17:57:40;2.87;;;1.17;;
42194;SDS011;27863;49.440;11.102;2024-03-23T18:00:40;2.90;;;1.10;;
42194;SDS011;27863;49.440;11.102;2024-03-23T18:03:41;2.73;;;1.10;;
42194;SDS011;27863;49.440;11.102;2024-03-23T18:06:42;1.27;;;0.90;;
42194;SDS011;27863;49.440;11.102;2024-03-23T18:09:42;1.60;;;0.90;;
42194;SDS011;27863;49.440;11.102;2024-03-23T18:12:43;1.47;;;1.00;;
42194;SDS011;27863;49.440;11.102;2024-03-23T18:15:54;1.67;;;1.20;;
42194;SDS011;27863;49.440;11.102;2024-03-23T18:18:56;1.10;;;1.00;;
42194;SDS011;27863;49.440;11.102;2024-03-23T18:21:57;2.23;;;1.30;;
42194;SDS011;27863;49.440;11.102;2024-03-23T18:24:58;1.73;;;1.10;;
42194;SDS011;27863;49.440;11.102;2024-03-23T18:27:59;2.37;;;1.40;;
42194;SDS011;27863;49.440;11.102;2024-03-23T18:31:01;1.67;;;1.30;;
42194;SDS011;27863;49.440;11.102;2024-03-23T18:34:02;2.37;;;1.33;;
42194;SDS011;27863;49.440;11.102;2024-03-23T18:37:03;2.43;;;1.47;;
42194;SDS011;27863;49.440;11.102;2024-03-23T18:40:06;1.93;;;1.60;;
42194;SDS011;27863;49.440;11.102;2024-03-23T18:43:07;2.13;;;1.30;;
42194;SDS011;27863;49.440;11.102;2024-03-23T18:46:08;1.80;;;1.60;;
42194;SDS011;27863;49.440;11.102;2024-03-23T18:49:09;2.63;;;1.67;;
42194;SDS011;27863;49.440;11.102;2024-03-23T18:52:09;1.90;;;1.57;;
42194;SDS011;27863;49.440;11.102;2024-03-23T18:55:10;2.17;;;1.40;;